airplane image

note

mic

electronics

Fly Music Sound

What-else

 

 

 

 

LSZB

[Source: ADDS]
METAR
LSZB 221120Z 32004KT 240V030 CAVOK 31/17 Q1018 NOSIG =
TAF
LSZB 221125Z 2212/2221 30005KT CAVOK BECMG 2212/2214 9999 FEW060 PROB40 TEMPO 2213/2218 30010KT SCT050TCU =

LSZG

[Source: ADDS]
METAR
LSZG 221120Z 23004KT 9999 FEW050 31/16 Q1017 NOSIG =
TAF
LSZG 221125Z 2212/2221 24008KT 9999 FEW050 PROB30 TEMPO 2214/2218 TSRA FEW050CB BKN080 =

LSZH

[Source: ADDS]
METAR
LSZH 221120Z 27006KT 220V320 CAVOK 32/14 Q1017 NOSIG =
TAF
LSZH 221125Z 2212/2318 VRB03KT CAVOK TX34/2215Z TN17/2304Z TX34/2315Z BECMG 2212/2214 9999 FEW060 BECMG 2214/2216 FEW060TCU PROB40 TEMPO 2214/2219 29008KT PROB30 TEMPO 2217/2300 4500 TSRA SCT060CB BECMG 2304/2307 CAVOK BECMG 2311/2313 9999 FEW060 =